Terminal Aerodrome Forecast
Issued by NWS Caribou, ME

Home | Current Version | Previous Version | Text Only | Print | Product List | Glossary On
Versions: 1 2 3 4 5 6 7 8 9 10 11 12 13 14 15 16 17 18 19 20 21 22 23 24
000
FTUS41 KCAR 251137 AAA
TAFBGR
TAF AMD
KBGR 251137Z 2512/2612 00000KT 1/4SM -DZ FG OVC002
     FM251400 16004KT 3/4SM -DZ BR OVC003
     FM252000 16007KT 1/2SM -DZ FG OVC002
     FM260100 16009KT 2SM -RA BR OVC003
     FM260300 16009KT 1SM -RA BR OVC003 WS020/16040KT
     FM260900 25008KT 6SM -RA OVC015=

USA.gov is the U.S. government's official web portal to all federal, state and local government web resources and services.